createdAt,value
2019-03-06T00:02:24.134Z,7.50
2019-03-06T00:04:52.280Z,7.93
2019-03-06T00:07:20.646Z,5.83
2019-03-06T00:09:48.904Z,5.93
2019-03-06T00:12:18.449Z,5.63
2019-03-06T00:14:46.584Z,7.00
2019-03-06T00:17:14.783Z,9.30
2019-03-06T00:19:42.992Z,16.47
2019-03-06T00:22:11.393Z,16.83
2019-03-06T00:24:39.711Z,20.43
2019-03-06T00:27:07.901Z,27.93
2019-03-06T00:29:36.228Z,46.20
2019-03-06T00:32:04.515Z,35.47
2019-03-06T00:34:32.743Z,36.57
2019-03-06T00:37:01.168Z,34.70
2019-03-06T00:39:31.493Z,30.80
2019-03-06T00:41:59.666Z,25.63
2019-03-06T00:44:27.821Z,13.00
2019-03-06T00:46:56.059Z,5.83
2019-03-06T00:49:24.289Z,10.87
2019-03-06T00:51:53.044Z,14.67
2019-03-06T00:54:21.319Z,18.67
2019-03-06T00:56:49.853Z,16.20
2019-03-06T00:59:18.176Z,16.07
2019-03-06T01:01:46.380Z,18.60
2019-03-06T01:04:14.840Z,22.70
2019-03-06T01:06:43.292Z,23.43
2019-03-06T01:09:11.728Z,24.77
2019-03-06T01:11:39.888Z,25.03
2019-03-06T01:14:08.736Z,24.40
2019-03-06T01:16:37.355Z,18.33
2019-03-06T01:19:05.717Z,14.40
2019-03-06T01:21:33.911Z,25.30
2019-03-06T01:24:02.115Z,23.97
2019-03-06T01:26:30.616Z,25.77
2019-03-06T01:28:58.943Z,21.37
2019-03-06T01:31:27.321Z,24.53
2019-03-06T01:33:59.895Z,27.53
2019-03-06T01:36:29.690Z,37.63
2019-03-06T01:38:59.628Z,35.67
2019-03-06T01:41:41.786Z,25.00
2019-03-06T01:44:11.756Z,24.53
2019-03-06T01:46:40.057Z,28.37
2019-03-06T01:49:08.213Z,28.07
2019-03-06T01:51:36.712Z,23.17
2019-03-06T01:54:04.879Z,26.90
2019-03-06T01:56:33.037Z,24.13
2019-03-06T01:59:01.574Z,23.73
2019-03-06T02:01:29.738Z,17.27
2019-03-06T02:03:58.321Z,12.20
2019-03-06T02:06:26.529Z,15.70
2019-03-06T02:08:55.155Z,13.67
2019-03-06T02:11:23.313Z,8.53
2019-03-06T02:13:51.774Z,11.37
2019-03-06T02:16:21.284Z,15.30
2019-03-06T02:18:49.460Z,27.67
2019-03-06T02:21:17.668Z,14.73
2019-03-06T02:23:45.824Z,12.53
2019-03-06T02:26:14.026Z,11.10
2019-03-06T02:28:42.482Z,8.50
2019-03-06T02:31:11.051Z,9.67
2019-03-06T02:33:39.412Z,11.20
2019-03-06T02:36:07.725Z,10.63
2019-03-06T02:38:36.034Z,10.47
2019-03-06T02:41:04.326Z,13.97
2019-03-06T02:43:32.775Z,18.50
2019-03-06T02:46:01.031Z,11.13
2019-03-06T02:48:29.208Z,16.63
2019-03-06T02:50:57.786Z,14.53
2019-03-06T02:53:26.180Z,11.23
2019-03-06T02:55:54.330Z,10.13
2019-03-06T02:58:24.260Z,11.13
2019-03-06T03:01:10.733Z,11.70
2019-03-06T03:03:56.692Z,14.00
2019-03-06T03:06:26.812Z,13.03
2019-03-06T03:08:54.961Z,12.07
2019-03-06T03:11:23.233Z,15.97
2019-03-06T03:13:51.653Z,12.77
2019-03-06T03:16:20.342Z,12.20
2019-03-06T03:18:49.737Z,10.90
2019-03-06T03:21:17.889Z,13.17
2019-03-06T03:23:46.048Z,15.57
2019-03-06T03:26:14.255Z,12.77
2019-03-06T03:28:42.405Z,13.10
2019-03-06T03:34:06.602Z,13.73
2019-03-06T03:36:35.053Z,13.43
2019-03-06T03:39:04.630Z,14.83
2019-03-06T03:41:32.828Z,18.57
2019-03-06T03:44:01.108Z,16.63
2019-03-06T03:46:29.260Z,15.43
2019-03-06T03:48:57.765Z,14.63
2019-03-06T03:51:25.922Z,13.30
2019-03-06T03:53:54.079Z,15.20
2019-03-06T03:56:22.522Z,15.27
2019-03-06T03:58:50.669Z,15.63
2019-03-06T04:01:18.825Z,13.40
2019-03-06T04:03:47.037Z,14.33
2019-03-06T04:06:15.599Z,14.37
2019-03-06T04:08:43.898Z,13.97
2019-03-06T04:11:12.490Z,15.37
2019-03-06T04:13:40.823Z,12.70
2019-03-06T04:16:09.705Z,15.00
2019-03-06T04:18:38.171Z,14.23
2019-03-06T04:21:07.590Z,14.47
2019-03-06T04:23:35.752Z,16.57
2019-03-06T04:26:04.117Z,17.23
2019-03-06T04:28:32.423Z,17.60
2019-03-06T04:31:00.731Z,20.37
2019-03-06T04:33:29.377Z,19.67
2019-03-06T04:35:57.530Z,20.93
2019-03-06T04:38:25.925Z,20.20
2019-03-06T04:40:54.751Z,24.87
2019-03-06T04:43:22.978Z,24.17
2019-03-06T04:45:51.293Z,28.47
2019-03-06T04:48:19.756Z,24.00
2019-03-06T04:50:47.912Z,24.40
2019-03-06T04:53:16.076Z,27.40
2019-03-06T04:55:44.264Z,24.83
2019-03-06T04:58:12.889Z,25.03
2019-03-06T05:00:41.287Z,23.17
2019-03-06T05:03:09.683Z,26.03
2019-03-06T05:05:38.011Z,30.13
2019-03-06T05:08:06.356Z,27.27
2019-03-06T05:10:34.831Z,24.33
2019-03-06T05:13:03.621Z,19.37
2019-03-06T05:15:32.100Z,25.40
2019-03-06T05:18:05.328Z,33.90
2019-03-06T05:20:33.861Z,39.10
2019-03-06T05:23:03.143Z,34.43
2019-03-06T05:25:31.853Z,35.60
2019-03-06T05:28:00.538Z,33.43
2019-03-06T05:30:30.183Z,44.77
2019-03-06T05:33:02.669Z,47.43
2019-03-06T05:35:41.539Z,37.20
2019-03-06T05:38:14.043Z,38.60
2019-03-06T05:40:42.192Z,34.93
2019-03-06T05:43:10.604Z,34.57
2019-03-06T05:45:38.973Z,33.50
2019-03-06T05:48:07.210Z,38.57
2019-03-06T05:50:35.705Z,29.67
2019-03-06T05:53:04.525Z,31.73
2019-03-06T05:55:32.864Z,33.00
2019-03-06T05:58:01.020Z,54.03
2019-03-06T06:00:30.956Z,38.73
2019-03-06T06:02:59.350Z,35.60
2019-03-06T06:05:27.712Z,33.97
2019-03-06T06:07:56.037Z,32.80
2019-03-06T06:10:24.218Z,31.47
2019-03-06T06:12:52.752Z,28.33
2019-03-06T06:15:21.535Z,30.00
2019-03-06T06:17:50.206Z,32.20
2019-03-06T06:20:18.503Z,33.17
2019-03-06T06:22:48.505Z,32.07
2019-03-06T06:25:17.844Z,29.27
2019-03-06T06:27:46.272Z,29.33
2019-03-06T06:30:15.536Z,36.23
2019-03-06T06:32:43.800Z,34.77
2019-03-06T06:35:12.396Z,33.40
2019-03-06T06:37:41.018Z,35.17
2019-03-06T06:40:10.143Z,35.00
2019-03-06T06:42:38.379Z,38.67
2019-03-06T06:45:08.809Z,45.33
2019-03-06T06:47:37.221Z,55.90
2019-03-06T06:50:07.655Z,65.17
2019-03-06T06:52:40.523Z,55.80
2019-03-06T06:55:10.541Z,21.30
2019-03-06T06:57:43.497Z,14.87
2019-03-06T07:00:13.493Z,13.10
2019-03-06T07:02:53.858Z,17.90
2019-03-06T07:05:26.589Z,17.63
2019-03-06T07:08:13.233Z,17.43
2019-03-06T07:10:48.950Z,21.50
2019-03-06T07:13:22.007Z,22.33
2019-03-06T07:16:08.532Z,19.90
2019-03-06T07:18:44.468Z,20.17
2019-03-06T07:21:23.504Z,17.87
2019-03-06T07:24:09.737Z,15.13
2019-03-06T07:26:43.355Z,16.93
2019-03-06T07:29:22.320Z,14.87
2019-03-06T07:32:10.293Z,15.00
2019-03-06T07:34:56.706Z,26.30
2019-03-06T07:37:35.822Z,14.33
2019-03-06T07:40:05.901Z,11.47
2019-03-06T07:42:35.715Z,10.50
2019-03-06T07:45:24.044Z,10.30
2019-03-06T07:47:54.198Z,10.77
2019-03-06T07:50:33.167Z,11.13
2019-03-06T07:53:27.400Z,11.10
2019-03-06T07:56:06.286Z,17.87
2019-03-06T07:58:48.714Z,11.23
2019-03-06T08:01:17.420Z,13.37
2019-03-06T08:03:45.906Z,11.77
2019-03-06T08:06:14.086Z,12.80
2019-03-06T08:08:43.212Z,11.43
2019-03-06T08:11:13.156Z,12.17
2019-03-06T08:13:42.988Z,10.33
2019-03-06T08:16:15.683Z,11.47
2019-03-06T08:18:45.649Z,12.20
2019-03-06T08:21:15.724Z,11.63
2019-03-06T08:24:04.460Z,10.33
2019-03-06T08:26:32.795Z,10.50
2019-03-06T08:29:02.235Z,11.77
2019-03-06T08:31:32.212Z,10.47
2019-03-06T08:34:00.637Z,10.47
2019-03-06T08:36:29.151Z,12.13
2019-03-06T08:38:57.795Z,12.13
2019-03-06T08:41:26.183Z,8.80
2019-03-06T08:43:54.332Z,10.83
2019-03-06T08:46:24.165Z,11.93
2019-03-06T08:48:56.693Z,10.43
2019-03-06T08:51:27.162Z,10.00
2019-03-06T08:53:56.975Z,9.63
2019-03-06T08:56:26.773Z,11.67
2019-03-06T08:59:03.000Z,10.33
2019-03-06T09:01:38.736Z,8.87
2019-03-06T09:04:14.503Z,10.33
2019-03-06T09:07:00.736Z,8.73
2019-03-06T09:09:47.420Z,8.13
2019-03-06T09:12:17.212Z,12.10
2019-03-06T09:14:59.330Z,10.13
2019-03-06T09:17:29.533Z,7.70
2019-03-06T09:20:02.333Z,9.63
2019-03-06T09:22:34.864Z,9.77
2019-03-06T09:25:21.599Z,12.10
2019-03-06T09:28:08.211Z,11.90
2019-03-06T09:30:38.975Z,9.20
2019-03-06T09:33:11.984Z,8.63
2019-03-06T09:35:48.296Z,9.70
2019-03-06T09:38:29.947Z,9.20
2019-03-06T09:41:16.886Z,9.67
2019-03-06T09:43:47.225Z,10.50
2019-03-06T09:46:20.415Z,8.67
2019-03-06T09:48:56.702Z,8.30
2019-03-06T09:51:26.625Z,7.93
2019-03-06T09:53:56.771Z,8.23
2019-03-06T09:56:38.604Z,7.83
2019-03-06T09:59:11.348Z,10.30
2019-03-06T10:01:50.281Z,9.50
2019-03-06T10:04:23.217Z,12.63
2019-03-06T10:07:09.613Z,8.47
2019-03-06T10:09:39.407Z,8.50
2019-03-06T10:12:12.205Z,12.47
2019-03-06T10:14:44.851Z,7.70
2019-03-06T10:17:17.381Z,6.90
2019-03-06T10:19:50.709Z,8.50
2019-03-06T10:22:18.861Z,7.20
2019-03-06T10:24:47.317Z,8.50
2019-03-06T10:27:15.512Z,5.93
2019-03-06T10:29:43.664Z,5.97
2019-03-06T10:32:12.929Z,6.60
2019-03-06T10:34:41.354Z,4.90
2019-03-06T10:37:09.850Z,5.33
2019-03-06T10:39:38.304Z,5.67
2019-03-06T10:42:06.596Z,7.33
2019-03-06T10:44:35.241Z,9.07
2019-03-06T10:47:03.410Z,5.20
2019-03-06T10:49:31.890Z,5.37
2019-03-06T10:52:00.049Z,5.97
2019-03-06T10:54:28.440Z,6.23
2019-03-06T10:56:57.112Z,6.33
2019-03-06T10:59:25.258Z,5.73
2019-03-06T11:01:53.411Z,5.37
2019-03-06T11:04:26.038Z,5.37
2019-03-06T11:06:54.189Z,5.03
2019-03-06T11:09:22.367Z,6.13
2019-03-06T11:11:50.561Z,4.33
2019-03-06T11:14:18.900Z,5.07
2019-03-06T11:16:47.326Z,4.90
2019-03-06T11:19:16.508Z,3.97
2019-03-06T11:21:44.936Z,4.50
2019-03-06T11:24:13.638Z,4.67
2019-03-06T11:26:42.197Z,4.23
2019-03-06T11:29:10.730Z,6.00
2019-03-06T11:31:39.260Z,4.60
2019-03-06T11:34:10.756Z,4.90
2019-03-06T11:36:39.152Z,4.37
2019-03-06T11:39:08.233Z,4.13
2019-03-06T11:41:37.120Z,5.57
2019-03-06T11:44:05.659Z,4.53
2019-03-06T11:46:33.912Z,5.00
2019-03-06T11:49:02.094Z,5.27
2019-03-06T11:51:30.531Z,6.13
2019-03-06T11:53:59.019Z,4.87
2019-03-06T11:56:27.604Z,4.37
2019-03-06T11:58:55.862Z,4.10
2019-03-06T12:01:25.141Z,3.87
2019-03-06T12:03:53.447Z,3.87
2019-03-06T12:06:21.600Z,3.80
2019-03-06T12:08:49.752Z,7.03
2019-03-06T12:11:17.944Z,6.30
2019-03-06T12:13:46.508Z,5.73
2019-03-06T12:16:15.736Z,4.80
2019-03-06T12:18:44.196Z,2.93
2019-03-06T12:21:12.426Z,3.27
2019-03-06T12:23:40.817Z,4.57
2019-03-06T12:26:09.061Z,3.10
2019-03-06T12:28:37.216Z,4.80
2019-03-06T12:31:07.504Z,3.30
2019-03-06T12:33:35.916Z,3.13
2019-03-06T12:36:05.711Z,3.57
2019-03-06T12:38:34.159Z,5.57
2019-03-06T12:41:02.353Z,2.83
2019-03-06T12:43:30.900Z,3.53
2019-03-06T12:46:09.775Z,3.33
2019-03-06T12:48:38.884Z,3.73
2019-03-06T12:51:07.532Z,4.40
2019-03-06T12:53:35.937Z,3.83
2019-03-06T12:56:04.187Z,3.43
2019-03-06T12:58:32.502Z,6.40
2019-03-06T13:01:00.698Z,2.70
2019-03-06T13:03:28.956Z,2.60
2019-03-06T13:05:57.148Z,2.50
2019-03-06T13:08:25.340Z,2.60
2019-03-06T13:10:53.598Z,2.83
2019-03-06T13:13:21.850Z,3.23
2019-03-06T13:15:50.043Z,4.23
2019-03-06T13:18:18.209Z,4.27
2019-03-06T13:20:46.365Z,3.77
2019-03-06T13:23:14.556Z,3.33
2019-03-06T13:29:05.246Z,2.43
2019-03-06T13:31:33.931Z,3.03
2019-03-06T13:34:06.932Z,3.97
2019-03-06T13:36:36.186Z,2.60
2019-03-06T13:39:06.541Z,2.50
2019-03-06T13:41:35.380Z,3.50
2019-03-06T13:44:04.112Z,3.13
2019-03-06T13:46:32.541Z,3.40
2019-03-06T13:49:01.000Z,5.53
2019-03-06T13:51:29.572Z,2.90
2019-03-06T13:53:58.187Z,3.40
2019-03-06T13:56:26.636Z,3.10
2019-03-06T13:58:54.823Z,3.20
2019-03-06T14:01:23.681Z,2.83
2019-03-06T14:03:52.307Z,3.07
2019-03-06T14:06:20.868Z,3.27
2019-03-06T14:08:49.105Z,3.27
2019-03-06T14:11:17.749Z,3.87
2019-03-06T14:13:45.935Z,2.40
2019-03-06T14:16:14.648Z,3.43
2019-03-06T14:18:42.928Z,4.43
2019-03-06T14:21:11.443Z,2.97
2019-03-06T14:23:39.693Z,3.90
2019-03-06T14:26:08.186Z,3.30
2019-03-06T14:28:36.885Z,3.03
2019-03-06T14:31:05.088Z,2.47
2019-03-06T14:33:33.563Z,2.87
2019-03-06T14:36:01.762Z,2.67
2019-03-06T14:38:30.145Z,2.83
2019-03-06T14:40:58.456Z,2.77
2019-03-06T14:43:27.126Z,3.17
2019-03-06T14:45:55.424Z,2.90
2019-03-06T14:48:24.120Z,2.93
2019-03-06T14:50:52.698Z,3.73
2019-03-06T14:53:20.898Z,5.63
2019-03-06T14:55:49.221Z,5.77
2019-03-06T14:58:17.710Z,7.73
2019-03-06T15:00:46.113Z,4.67
2019-03-06T15:03:14.429Z,4.80
2019-03-06T15:05:47.061Z,8.43
2019-03-06T15:08:12.642Z,6.83
2019-03-06T15:10:43.168Z,10.30
2019-03-06T15:13:11.081Z,13.13
2019-03-06T15:15:39.808Z,12.40
2019-03-06T15:18:10.862Z,6.67
2019-03-06T15:20:38.865Z,6.83
2019-03-06T15:23:07.149Z,6.33
2019-03-06T15:25:35.683Z,5.37
2019-03-06T15:28:04.511Z,7.67
2019-03-06T15:30:32.932Z,8.47
2019-03-06T15:33:01.485Z,6.90
2019-03-06T15:35:29.961Z,6.20
2019-03-06T15:37:58.259Z,8.10
2019-03-06T15:40:28.094Z,6.67
2019-03-06T15:42:56.499Z,9.60
2019-03-06T15:45:26.469Z,8.07
2019-03-06T15:47:55.634Z,8.40
2019-03-06T15:50:24.118Z,11.47
2019-03-06T15:52:52.531Z,20.13
2019-03-06T15:55:24.674Z,14.43
2019-03-06T15:57:52.917Z,58.17
2019-03-06T16:00:24.090Z,45.23
2019-03-06T16:02:52.644Z,33.97
2019-03-06T16:05:21.146Z,36.23
2019-03-06T16:07:49.273Z,38.33
2019-03-06T16:10:17.671Z,48.67
2019-03-06T16:12:46.183Z,54.50
2019-03-06T16:15:15.276Z,52.13
2019-03-06T16:17:43.788Z,55.43
2019-03-06T16:20:16.700Z,53.00
2019-03-06T16:22:45.340Z,57.17
2019-03-06T16:25:13.693Z,78.63
2019-03-06T16:27:42.234Z,86.77
2019-03-06T16:30:14.644Z,78.70
2019-03-06T16:32:42.891Z,71.97
2019-03-06T16:35:11.165Z,77.33
2019-03-06T16:37:39.824Z,90.33
2019-03-06T16:40:09.999Z,82.47
2019-03-06T16:42:39.350Z,96.07
2019-03-06T16:45:08.336Z,97.97
2019-03-06T16:47:38.414Z,100.90
2019-03-06T16:50:14.419Z,87.87
2019-03-06T16:52:43.820Z,85.33
2019-03-06T16:55:13.768Z,90.43
2019-03-06T16:57:42.626Z,89.47
2019-03-06T17:00:15.161Z,65.07
2019-03-06T17:02:43.827Z,52.97
2019-03-06T17:05:12.104Z,57.80
2019-03-06T17:07:40.534Z,77.60
2019-03-06T17:10:11.090Z,103.00
2019-03-06T17:12:38.710Z,127.93
2019-03-06T17:15:08.628Z,172.83
2019-03-06T17:17:36.954Z,184.47
2019-03-06T17:20:06.827Z,187.27
2019-03-06T17:22:35.165Z,220.03
2019-03-06T17:25:04.801Z,219.50
2019-03-06T17:27:32.971Z,169.73
2019-03-06T17:30:01.610Z,129.87
2019-03-06T17:32:29.831Z,151.47
2019-03-06T17:34:58.356Z,155.47
2019-03-06T17:37:26.621Z,150.57
2019-03-06T17:39:55.336Z,224.27
2019-03-06T17:42:23.582Z,258.53
2019-03-06T17:44:52.811Z,251.37
2019-03-06T17:47:21.073Z,326.40
2019-03-06T17:49:50.318Z,262.27
2019-03-06T17:52:18.899Z,263.17
2019-03-06T17:54:47.099Z,230.83
2019-03-06T17:57:15.292Z,218.33
2019-03-06T17:59:44.705Z,214.43
2019-03-06T18:02:14.999Z,224.07
2019-03-06T18:04:43.148Z,205.20
2019-03-06T18:07:11.632Z,218.67
2019-03-06T18:09:41.908Z,280.33
2019-03-06T18:12:11.000Z,390.87
2019-03-06T18:14:39.166Z,379.03
2019-03-06T18:17:07.598Z,379.60
2019-03-06T18:19:36.126Z,372.73
2019-03-06T18:22:07.812Z,388.60
2019-03-06T18:24:36.334Z,447.70
2019-03-06T18:27:04.841Z,439.70
2019-03-06T18:29:35.004Z,554.70
2019-03-06T18:32:03.642Z,501.47
2019-03-06T18:34:34.060Z,476.93
2019-03-06T18:37:02.304Z,518.63
2019-03-06T18:39:30.578Z,473.67
2019-03-06T18:41:58.739Z,411.23
2019-03-06T18:44:27.146Z,402.97
2019-03-06T18:46:57.062Z,396.93
2019-03-06T18:49:25.351Z,371.60
2019-03-06T18:51:53.716Z,349.80
2019-03-06T18:54:22.386Z,401.23
2019-03-06T18:56:51.309Z,390.97
2019-03-06T18:59:20.256Z,397.90
2019-03-06T19:01:48.595Z,433.10
2019-03-06T19:04:17.158Z,491.40
2019-03-06T19:06:45.667Z,461.90
2019-03-06T19:09:14.218Z,445.93
2019-03-06T19:11:42.512Z,417.77
2019-03-06T19:14:11.076Z,412.60
2019-03-06T19:16:40.075Z,400.77
2019-03-06T19:19:08.316Z,393.73
2019-03-06T19:21:37.143Z,406.60
2019-03-06T19:24:05.857Z,449.70
2019-03-06T19:26:34.348Z,441.37
2019-03-06T19:29:02.632Z,367.33
2019-03-06T19:31:31.337Z,346.13
2019-03-06T19:33:59.928Z,368.90
2019-03-06T19:36:28.586Z,360.53
2019-03-06T19:38:57.105Z,289.60
2019-03-06T19:41:25.729Z,77.77
2019-03-06T19:43:54.140Z,23.50
2019-03-06T19:46:22.958Z,85.97
2019-03-06T19:48:52.746Z,42.17
2019-03-06T19:51:21.134Z,4.47
2019-03-06T19:53:49.619Z,4.00
2019-03-06T19:56:18.563Z,3.50
2019-03-06T19:58:47.663Z,4.40
2019-03-06T20:01:16.231Z,2.53
2019-03-06T20:03:44.832Z,7.93
2019-03-06T20:06:13.548Z,3.70
2019-03-06T20:08:41.926Z,6.00
2019-03-06T20:11:10.440Z,4.73
2019-03-06T20:13:38.895Z,7.03
2019-03-06T20:16:08.845Z,3.93
2019-03-06T20:18:37.012Z,4.97
2019-03-06T20:21:05.233Z,4.63
2019-03-06T20:23:33.845Z,3.83
2019-03-06T20:26:02.329Z,7.90
2019-03-06T20:28:31.099Z,9.03
2019-03-06T20:30:59.643Z,6.30
2019-03-06T20:33:28.011Z,21.07
2019-03-06T20:35:56.257Z,75.40
2019-03-06T20:38:24.808Z,9.83
2019-03-06T20:40:53.366Z,12.73
2019-03-06T20:43:21.882Z,11.70
2019-03-06T20:45:50.773Z,14.13
2019-03-06T20:48:19.434Z,15.97
2019-03-06T20:50:49.007Z,7.83
2019-03-06T20:53:17.307Z,6.77
2019-03-06T20:55:45.567Z,10.87
2019-03-06T20:58:13.850Z,7.43
2019-03-06T21:00:43.082Z,12.13
2019-03-06T21:03:11.329Z,11.63
2019-03-06T21:05:39.512Z,11.03
2019-03-06T21:08:08.474Z,6.17
2019-03-06T21:10:36.834Z,9.17
2019-03-06T21:13:05.161Z,8.47
2019-03-06T21:15:33.598Z,11.83
2019-03-06T21:18:01.933Z,7.00
2019-03-06T21:20:30.093Z,9.27
2019-03-06T21:22:58.302Z,5.37
2019-03-06T21:25:26.464Z,12.27
2019-03-06T21:27:54.625Z,14.67
2019-03-06T21:30:26.092Z,6.13
2019-03-06T21:32:54.243Z,3.90
2019-03-06T21:35:23.156Z,5.30
2019-03-06T21:37:51.382Z,5.00
2019-03-06T21:40:20.472Z,7.37
2019-03-06T21:42:49.203Z,5.37
2019-03-06T21:45:17.427Z,5.60
2019-03-06T21:47:45.577Z,7.50
2019-03-06T21:50:15.353Z,5.43
2019-03-06T21:52:44.655Z,6.17
2019-03-06T21:55:14.751Z,5.97
2019-03-06T21:57:43.080Z,4.23
2019-03-06T22:00:18.521Z,6.33
2019-03-06T22:02:46.824Z,5.43
2019-03-06T22:05:15.233Z,4.83
2019-03-06T22:07:43.437Z,6.00
2019-03-06T22:10:12.453Z,6.33
2019-03-06T22:12:41.114Z,12.00
2019-03-06T22:15:16.889Z,6.60
2019-03-06T22:17:45.252Z,6.00
2019-03-06T22:20:13.793Z,7.03
2019-03-06T22:22:41.986Z,4.90
2019-03-06T22:25:14.133Z,4.93
2019-03-06T22:27:42.331Z,10.37
2019-03-06T22:30:12.187Z,8.27
2019-03-06T22:32:40.613Z,15.03
2019-03-06T22:35:08.768Z,10.23
2019-03-06T22:37:37.428Z,6.27
2019-03-06T22:40:10.453Z,7.17
2019-03-06T22:42:39.021Z,11.50
2019-03-06T22:45:08.999Z,6.43
2019-03-06T22:47:37.589Z,5.30
2019-03-06T22:50:07.893Z,5.77
2019-03-06T22:52:36.106Z,9.83
2019-03-06T22:55:06.369Z,8.47
2019-03-06T22:57:34.891Z,7.87
2019-03-06T23:00:03.486Z,4.83
2019-03-06T23:02:31.995Z,8.80
2019-03-06T23:05:00.316Z,6.43
2019-03-06T23:07:28.476Z,6.70
2019-03-06T23:09:57.027Z,4.90
2019-03-06T23:12:25.245Z,6.63
2019-03-06T23:14:53.773Z,4.77
2019-03-06T23:17:22.041Z,5.03
2019-03-06T23:19:52.551Z,7.30
2019-03-06T23:22:20.187Z,4.50
2019-03-06T23:24:48.910Z,5.30
2019-03-06T23:27:17.171Z,5.47
2019-03-06T23:29:45.511Z,11.93
2019-03-06T23:32:13.659Z,6.37
2019-03-06T23:34:41.962Z,8.10
2019-03-06T23:37:10.166Z,4.80
2019-03-06T23:39:38.611Z,6.23
2019-03-06T23:42:07.010Z,5.93
2019-03-06T23:44:35.593Z,4.57
2019-03-06T23:47:04.185Z,5.77
2019-03-06T23:49:32.339Z,6.27
2019-03-06T23:52:18.800Z,6.07
2019-03-06T23:54:46.954Z,6.20
2019-03-06T23:57:16.251Z,6.60
2019-03-06T23:59:44.700Z,5.40
